Time;durP1;ratioP1;P1;durP2;ratioP2;P2;SDS_P1;SDS_P2;PMS_P1;PMS_P2;Temp;Humidity;BMP_temperature;BMP_pressure;BME280_temperature;BME280_humidity;BME280_pressure;Samples;Min_cycle;Max_cycle;Signal;HPM_P1;HPM_P2
2023/10/05 00:02:26;;;;;;;5.93;3.53;;;10.40;15.60;;;;;;7357134;19;20021;-70
2023/10/05 00:04:57;;;;;;;8.10;3.55;;;10.40;16.90;;;;;;7357924;19;20014;-70
2023/10/05 00:07:32;;;;;;;5.80;3.45;;;10.40;20.30;;;;;;7361788;19;20011;-70
2023/10/05 00:10:03;;;;;;;11.77;4.45;;;10.40;22.80;;;;;;7361231;19;20524;-70
2023/10/05 00:12:38;;;;;;;7.47;3.78;;;10.40;22.40;;;;;;7356295;19;20082;-70
2023/10/05 00:15:14;;;;;;;7.28;4.03;;;10.50;22.00;;;;;;7299555;19;20014;-71
2023/10/05 00:17:47;;;;;;;8.32;3.95;;;10.40;21.80;;;;;;7356761;19;20041;-71
2023/10/05 00:20:24;;;;;;;7.50;3.92;;;10.30;24.20;;;;;;7366829;19;20463;-70
2023/10/05 00:22:57;;;;;;;6.60;4.10;;;10.30;27.50;;;;;;7358720;19;20022;-70
2023/10/05 00:25:29;;;;;;;6.32;3.55;;;10.30;27.00;;;;;;7356378;19;20013;-70
2023/10/05 00:28:03;;;;;;;6.78;3.88;;;10.20;31.20;;;;;;7347038;19;20014;-69
2023/10/05 00:30:38;;;;;;;8.80;4.45;;;10.30;29.90;;;;;;7368087;19;20014;-70
2023/10/05 00:33:11;;;;;;;7.13;3.75;;;10.30;28.30;;;;;;7355211;19;20443;-70
2023/10/05 00:35:45;;;;;;;7.77;4.47;;;10.30;28.20;;;;;;7334178;19;20042;-70
2023/10/05 00:38:19;;;;;;;9.90;3.90;;;10.20;27.00;;;;;;7352816;19;20272;-70
2023/10/05 00:40:57;;;;;;;6.15;4.25;;;10.30;26.50;;;;;;7343404;19;20075;-70
2023/10/05 00:43:31;;;;;;;12.23;4.40;;;10.30;26.30;;;;;;7332821;19;20599;-70
2023/10/05 00:46:09;;;;;;;7.80;4.20;;;10.20;27.30;;;;;;7314823;19;20604;-70
2023/10/05 00:49:00;;;;;;;8.25;4.38;;;10.20;27.20;;;;;;7331808;19;20420;-70
2023/10/05 00:51:35;;;;;;;9.90;4.22;;;10.20;28.80;;;;;;7356831;19;20021;-70
2023/10/05 00:54:19;;;;;;;6.43;4.15;;;10.20;28.00;;;;;;7358108;19;20833;-70
2023/10/05 00:56:52;;;;;;;7.82;4.10;;;10.20;29.10;;;;;;6845518;19;2004351;-69
2023/10/05 00:59:23;;;;;;;6.63;4.15;;;10.20;29.40;;;;;;7357662;19;20015;-70
2023/10/05 01:02:14;;;;;;;9.00;4.28;;;10.20;29.80;;;;;;7363861;19;20023;-70
2023/10/05 01:04:56;;;;;;;9.10;4.45;;;10.30;29.90;;;;;;7334192;19;20010;-70
2023/10/05 01:10:29;;;;;;;7.43;4.18;;;10.30;25.90;;;;;;6834182;19;2004902;-70
2023/10/05 01:13:01;;;;;;;7.47;4.50;;;10.30;28.30;;;;;;7352543;19;20079;-70
2023/10/05 01:15:35;;;;;;;9.65;4.38;;;10.30;27.50;;;;;;7355413;19;20094;-70
2023/10/05 01:18:11;;;;;;;8.07;4.43;;;10.30;27.90;;;;;;7352733;19;20013;-70
2023/10/05 01:20:43;;;;;;;9.38;4.38;;;10.20;29.90;;;;;;7356689;19;20033;-70
2023/10/05 01:23:16;;;;;;;5.38;3.42;;;10.20;30.90;;;;;;7332857;19;20040;-70
2023/10/05 01:25:50;;;;;;;9.15;4.38;;;10.10;30.70;;;;;;7354898;19;20362;-70
2023/10/05 01:28:23;;;;;;;9.75;4.32;;;9.80;34.50;;;;;;7356009;19;20015;-70
2023/10/05 01:30:55;;;;;;;6.50;4.13;;;9.80;44.80;;;;;;7322970;19;20010;-70
2023/10/05 01:33:29;;;;;;;8.50;4.70;;;9.80;48.60;;;;;;7352005;19;20129;-69
2023/10/05 01:36:03;;;;;;;7.22;4.70;;;9.90;54.90;;;;;;7338746;19;20469;-70
2023/10/05 01:38:38;;;;;;;9.57;5.18;;;10.00;49.30;;;;;;7370768;19;21720;-70
2023/10/05 01:41:09;;;;;;;7.65;4.55;;;10.00;48.00;;;;;;7369606;19;20090;-70
2023/10/05 01:43:42;;;;;;;9.73;5.35;;;10.00;47.30;;;;;;7367879;19;20014;-70
2023/10/05 01:46:13;;;;;;;9.02;5.20;;;10.10;49.70;;;;;;7374151;19;20018;-70
2023/10/05 01:48:43;;;;;;;8.90;4.90;;;10.10;51.50;;;;;;7378841;19;20007;-70
2023/10/05 01:51:20;;;;;;;9.73;5.43;;;10.10;50.70;;;;;;7378907;19;20562;-70
2023/10/05 01:53:59;;;;;;;13.52;5.82;;;10.10;53.40;;;;;;7375738;19;20010;-69
2023/10/05 01:56:29;;;;;;;10.75;5.15;;;10.10;54.30;;;;;;7376459;19;20030;-70
2023/10/05 01:59:03;;;;;;;7.00;5.18;;;10.10;54.60;;;;;;7378587;19;20026;-70
2023/10/05 02:01:37;;;;;;;;;;;10.00;50.60;;;;;;7380708;19;20124;-68
2023/10/05 02:04:09;;;;;;;9.57;5.30;;;10.00;55.40;;;;;;7378921;19;20401;-69
2023/10/05 02:06:45;;;;;;;9.98;5.78;;;10.00;57.40;;;;;;7376419;19;20015;-69
2023/10/05 02:09:19;;;;;;;9.32;5.78;;;10.10;56.00;;;;;;7377972;19;20777;-69
2023/10/05 02:11:50;;;;;;;10.63;6.32;;;10.00;54.90;;;;;;7376331;19;20194;-68
2023/10/05 02:14:22;;;;;;;13.75;6.38;;;10.00;58.40;;;;;;7377555;19;20014;-68
2023/10/05 02:16:52;;;;;;;10.93;7.18;;;10.00;58.00;;;;;;7375751;19;20020;-69
2023/10/05 02:19:22;;;;;;;14.18;7.22;;;10.00;58.70;;;;;;7377564;19;20007;-69
2023/10/05 02:21:54;;;;;;;13.25;7.82;;;10.00;55.00;;;;;;7375325;19;20621;-69
2023/10/05 02:24:30;;;;;;;11.25;7.38;;;9.90;58.70;;;;;;7377225;19;20014;-69
2023/10/05 02:27:11;;;;;;;10.75;7.13;;;9.80;62.80;;;;;;7375981;19;20014;-68
2023/10/05 02:29:43;;;;;;;12.75;6.85;;;9.70;68.60;;;;;;7375075;19;20014;-69
2023/10/05 02:32:21;;;;;;;10.90;7.18;;;9.80;74.80;;;;;;7376537;19;20015;-69
2023/10/05 02:34:59;;;;;;;10.57;6.63;;;9.80;73.60;;;;;;7377091;19;20355;-68
2023/10/05 02:37:32;;;;;;;13.00;6.72;;;9.80;71.80;;;;;;7376948;19;20030;-69
2023/10/05 02:40:08;;;;;;;10.93;6.27;;;9.80;67.10;;;;;;7375093;19;20036;-69
2023/10/05 02:42:39;;;;;;;12.85;6.55;;;9.80;63.40;;;;;;7376987;19;20085;-69
2023/10/05 02:45:11;;;;;;;10.57;6.78;;;9.80;60.70;;;;;;7374025;19;20032;-68
2023/10/05 02:47:41;;;;;;;9.38;6.32;;;9.80;64.80;;;;;;7375165;19;20351;-69
2023/10/05 02:50:12;;;;;;;12.20;6.10;;;9.80;64.10;;;;;;7375702;19;20027;-68
2023/10/05 02:52:42;;;;;;;8.55;6.00;;;9.80;64.90;;;;;;7375057;19;20021;-69
2023/10/05 02:55:15;;;;;;;8.25;5.72;;;9.70;64.30;;;;;;7375008;19;20069;-69
2023/10/05 02:57:45;;;;;;;10.57;5.60;;;9.70;66.10;;;;;;7375959;19;20014;-69
2023/10/05 03:00:20;;;;;;;8.98;5.57;;;9.70;71.40;;;;;;7376168;19;20093;-68
2023/10/05 03:02:50;;;;;;;9.50;5.82;;;9.70;70.00;;;;;;7376197;19;20412;-68
2023/10/05 03:05:20;;;;;;;11.90;6.15;;;9.70;71.20;;;;;;7376604;19;20501;-69
2023/10/05 03:07:51;;;;;;;10.10;5.95;;;9.80;69.80;;;;;;7374019;19;20018;-69
2023/10/05 03:10:23;;;;;;;17.63;7.30;;;9.70;66.10;;;;;;7376697;19;20006;-68
2023/10/05 03:12:54;;;;;;;12.30;6.80;;;9.80;66.10;;;;;;7375507;19;20028;-69
2023/10/05 03:15:28;;;;;;;11.68;6.97;;;9.80;62.10;;;;;;7375827;19;20029;-69
2023/10/05 03:17:59;;;;;;;12.30;6.88;;;9.90;62.50;;;;;;7374755;19;20118;-69
2023/10/05 03:20:31;;;;;;;9.32;6.30;;;9.90;54.20;;;;;;7376020;19;20026;-69
2023/10/05 03:23:03;;;;;;;11.68;6.75;;;9.90;50.40;;;;;;7374772;19;20047;-69
2023/10/05 03:25:36;;;;;;;10.73;6.65;;;9.90;48.40;;;;;;7375631;19;20022;-68
2023/10/05 03:28:07;;;;;;;8.60;6.18;;;9.80;50.10;;;;;;7371939;19;20010;-69
2023/10/05 03:30:37;;;;;;;10.23;6.50;;;9.80;49.80;;;;;;7376425;19;20011;-69
2023/10/05 03:33:10;;;;;;;10.85;6.43;;;9.80;54.70;;;;;;7376316;19;20010;-68
2023/10/05 03:35:45;;;;;;;11.75;6.90;;;9.80;55.80;;;;;;7376107;19;20025;-68
2023/10/05 03:38:19;;;;;;;12.75;7.13;;;9.80;55.90;;;;;;7377349;19;20017;-69
2023/10/05 03:40:51;;;;;;;10.02;6.40;;;9.80;55.70;;;;;;7375653;19;20015;-69
2023/10/05 03:43:23;;;;;;;10.95;7.10;;;9.80;55.00;;;;;;7374359;19;20077;-68
2023/10/05 03:45:53;;;;;;;10.45;6.75;;;9.90;54.80;;;;;;7374516;19;20011;-70
2023/10/05 03:48:23;;;;;;;14.13;6.75;;;9.80;47.80;;;;;;7374521;19;20010;-69
2023/10/05 03:50:54;;;;;;;9.38;7.07;;;9.80;50.00;;;;;;7373071;19;20086;-69
2023/10/05 03:53:24;;;;;;;13.13;7.30;;;9.80;51.70;;;;;;7374108;19;20049;-69
2023/10/05 03:55:56;;;;;;;10.85;6.68;;;9.90;52.90;;;;;;7373897;19;20027;-68
2023/10/05 03:58:26;;;;;;;10.85;6.60;;;9.90;50.20;;;;;;7375137;19;20023;-69
2023/10/05 04:00:58;;;;;;;17.00;7.00;;;9.80;45.50;;;;;;7374542;19;20014;-68
2023/10/05 04:03:28;;;;;;;10.07;7.00;;;9.80;49.40;;;;;;7374640;19;20015;-69
2023/10/05 04:05:58;;;;;;;8.65;6.40;;;9.80;50.40;;;;;;7374989;19;20435;-69
2023/10/05 04:08:30;;;;;;;12.18;7.05;;;9.70;53.10;;;;;;7372705;19;20014;-69
2023/10/05 04:11:04;;;;;;;11.30;6.78;;;9.80;52.70;;;;;;7374195;19;20040;-68
2023/10/05 04:13:35;;;;;;;9.88;6.50;;;9.80;51.60;;;;;;7374875;19;20073;-68
2023/10/05 04:16:18;;;;;;;9.90;6.63;;;9.90;50.90;;;;;;7373850;19;20006;-69
2023/10/05 04:18:49;;;;;;;10.45;6.40;;;9.80;44.40;;;;;;7373528;19;20015;-69
2023/10/05 04:21:22;;;;;;;9.70;5.78;;;9.80;45.10;;;;;;7373509;19;20374;-69
2023/10/05 04:23:58;;;;;;;10.13;5.85;;;9.80;47.70;;;;;;7371712;19;20011;-67
2023/10/05 04:26:37;;;;;;;8.40;5.43;;;9.70;45.70;;;;;;7371771;19;20022;-69
2023/10/05 04:29:08;;;;;;;9.20;5.63;;;9.80;45.00;;;;;;7374438;19;20007;-68
2023/10/05 04:31:38;;;;;;;9.45;5.63;;;9.70;48.80;;;;;;7373390;19;20036;-68
2023/10/05 04:34:12;;;;;;;10.73;5.53;;;9.70;54.50;;;;;;7374954;19;20028;-69
2023/10/05 04:36:45;;;;;;;10.40;6.80;;;9.80;51.90;;;;;;7369891;19;20031;-68
2023/10/05 04:39:21;;;;;;;12.52;6.82;;;9.70;48.20;;;;;;7373441;19;20014;-68
2023/10/05 04:41:55;;;;;;;9.32;6.15;;;9.70;52.30;;;;;;7372981;19;20054;-69
2023/10/05 04:44:25;;;;;;;8.75;5.88;;;9.80;52.00;;;;;;7372974;19;20019;-68
2023/10/05 04:46:55;;;;;;;13.73;6.40;;;9.70;49.20;;;;;;7371380;19;20156;-68
2023/10/05 04:49:27;;;;;;;9.32;6.30;;;9.70;47.40;;;;;;7372344;19;20069;-69
2023/10/05 04:51:59;;;;;;;8.88;6.55;;;9.80;50.80;;;;;;7371508;19;20035;-68
2023/10/05 04:54:34;;;;;;;8.93;6.15;;;9.80;50.20;;;;;;7373233;19;20010;-69
2023/10/05 04:57:22;;;;;;;9.43;6.43;;;9.70;48.40;;;;;;7372357;19;20013;-69
2023/10/05 04:59:59;;;;;;;12.38;6.75;;;9.70;51.00;;;;;;6861358;19;2003876;-68
2023/10/05 05:03:05;;;;;;;11.32;6.38;;;9.80;52.40;;;;;;7371815;19;20015;-69
2023/10/05 05:05:53;;;;;;;10.25;5.85;;;9.70;49.30;;;;;;6860226;19;2004793;-68
2023/10/05 05:08:23;;;;;;;10.95;6.68;;;9.70;48.30;;;;;;6860286;19;2004151;-69
2023/10/05 05:10:53;;;;;;;10.38;6.45;;;9.80;51.60;;;;;;7370086;19;20010;-69
2023/10/05 05:13:27;;;;;;;12.60;6.32;;;9.90;49.60;;;;;;7369889;19;20054;-69
2023/10/05 05:15:58;;;;;;;12.40;6.80;;;9.80;44.60;;;;;;7369813;19;20010;-69
2023/10/05 05:18:28;;;;;;;10.20;6.35;;;9.80;40.50;;;;;;7371033;19;20038;-69
2023/10/05 05:20:58;;;;;;;10.05;6.03;;;9.80;41.40;;;;;;7374496;19;20022;-68
2023/10/05 05:23:28;;;;;;;10.45;5.80;;;9.80;42.20;;;;;;7377078;19;20794;-68
2023/10/05 05:25:58;;;;;;;10.93;6.45;;;9.80;43.50;;;;;;7376591;19;20078;-69
2023/10/05 05:28:31;;;;;;;10.70;5.78;;;9.80;45.00;;;;;;7378044;19;20020;-68
2023/10/05 05:31:14;;;;;;;11.98;5.50;;;9.80;44.10;;;;;;7376182;19;20138;-68
2023/10/05 05:33:45;;;;;;;6.93;5.05;;;9.90;44.70;;;;;;7375535;19;20348;-69
2023/10/05 05:36:16;;;;;;;10.73;5.47;;;9.80;41.50;;;;;;7376195;19;20034;-69
2023/10/05 05:38:50;;;;;;;9.65;5.07;;;9.80;39.50;;;;;;7377764;19;20006;-69
2023/10/05 05:41:20;;;;;;;7.93;4.60;;;9.80;42.10;;;;;;7377621;19;20351;-69
2023/10/05 05:43:53;;;;;;;10.85;5.10;;;9.80;41.80;;;;;;7376720;19;20412;-69
2023/10/05 05:46:23;;;;;;;13.43;5.22;;;9.90;40.80;;;;;;7376328;19;20018;-68
2023/10/05 05:48:53;;;;;;;9.38;4.80;;;9.80;42.80;;;;;;7377944;19;20015;-69
2023/10/05 05:51:24;;;;;;;9.43;5.32;;;9.90;41.70;;;;;;7375436;19;20692;-68
2023/10/05 05:53:56;;;;;;;8.98;5.38;;;9.90;39.20;;;;;;7376457;19;20003;-69
2023/10/05 05:56:28;;;;;;;9.32;5.40;;;10.00;36.10;;;;;;7376176;19;20022;-68
2023/10/05 05:59:02;;;;;;;10.32;5.15;;;10.10;30.80;;;;;;7377556;19;20002;-68
2023/10/05 06:01:35;;;;;;;7.93;5.13;;;10.00;28.60;;;;;;7377822;19;20015;-69
2023/10/05 06:04:06;;;;;;;9.48;5.32;;;10.10;27.80;;;;;;7378025;19;20503;-68
2023/10/05 06:06:37;;;;;;;9.70;5.38;;;10.00;23.60;;;;;;7376691;19;20371;-69
2023/10/05 06:09:07;;;;;;;8.27;4.88;;;9.90;25.80;;;;;;7373369;19;20007;-69
2023/10/05 06:11:37;;;;;;;10.77;5.40;;;10.00;30.70;;;;;;7378290;19;20497;-69
2023/10/05 06:14:10;;;;;;;8.50;5.53;;;10.10;28.30;;;;;;7376568;19;20064;-69
2023/10/05 06:16:40;;;;;;;9.63;5.70;;;10.10;24.30;;;;;;7373619;19;20788;-67
2023/10/05 06:19:10;;;;;;;9.57;5.20;;;10.20;23.20;;;;;;7376613;19;20365;-68
2023/10/05 06:21:42;;;;;;;10.90;5.57;;;10.20;19.10;;;;;;7376717;19;20094;-68
2023/10/05 06:24:12;;;;;;;10.48;5.78;;;10.20;19.20;;;;;;7376009;19;20344;-68
2023/10/05 06:26:45;;;;;;;13.45;6.50;;;10.40;19.30;;;;;;7375075;19;20006;-68
2023/10/05 06:29:17;;;;;;;15.27;6.63;;;10.40;11.90;;;;;;7375605;19;20087;-69
2023/10/05 06:31:47;;;;;;;9.02;5.75;;;10.50;13.20;;;;;;7374203;19;20014;-69
2023/10/05 06:34:17;;;;;;;9.60;6.13;;;10.50;13.30;;;;;;7377139;19;20014;-69
2023/10/05 06:36:47;;;;;;;11.07;6.53;;;10.40;10.50;;;;;;7375885;19;20073;-69
2023/10/05 06:39:17;;;;;;;15.65;5.72;;;10.40;12.00;;;;;;7375996;19;20011;-69
2023/10/05 06:41:57;;;;;;;12.57;6.07;;;10.50;11.30;;;;;;7375346;19;20105;-69
2023/10/05 06:44:30;;;;;;;9.07;4.63;;;10.40;11.20;;;;;;7375823;19;20007;-69
2023/10/05 06:47:04;;;;;;;8.63;4.82;;;10.50;12.50;;;;;;7374710;19;20018;-70
2023/10/05 06:49:35;;;;;;;9.10;4.50;;;10.40;7.40;;;;;;7376044;19;20010;-69
2023/10/05 06:52:08;;;;;;;6.70;4.53;;;10.50;6.30;;;;;;7376022;19;20011;-68
2023/10/05 06:54:38;;;;;;;6.72;4.57;;;10.60;6.80;;;;;;7375768;19;20014;-69
2023/10/05 06:57:08;;;;;;;10.68;5.05;;;10.70;4.40;;;;;;7374624;19;20029;-69
2023/10/05 06:59:42;;;;;;;9.63;4.90;;;10.80;1.00;;;;;;7376364;19;20420;-69
2023/10/05 07:02:12;;;;;;;6.80;4.53;;;10.90;1.00;;;;;;7372435;19;20014;-69
2023/10/05 07:04:47;;;;;;;9.05;4.93;;;10.90;1.00;;;;;;7376409;19;20022;-70
2023/10/05 07:07:19;;;;;;;8.45;5.30;;;11.00;1.00;;;;;;7373340;19;20125;-68
2023/10/05 07:09:49;;;;;;;10.63;5.47;;;11.10;1.00;;;;;;7375284;19;20036;-68
2023/10/05 07:12:19;;;;;;;12.40;5.28;;;11.10;1.00;;;;;;7373786;19;20036;-69
2023/10/05 07:14:52;;;;;;;9.35;5.03;;;11.20;1.00;;;;;;7375315;19;20028;-69
2023/10/05 07:17:22;;;;;;;10.70;5.53;;;11.10;1.00;;;;;;7373900;19;20156;-69
2023/10/05 07:19:52;;;;;;;10.20;5.30;;;11.20;1.00;;;;;;7376885;19;20014;-69
2023/10/05 07:22:23;;;;;;;15.32;5.90;;;11.40;1.00;;;;;;7376382;19;20357;-69
2023/10/05 07:24:53;;;;;;;7.88;5.13;;;11.50;1.00;;;;;;7375484;19;20006;-69
2023/10/05 07:27:23;;;;;;;10.13;5.97;;;11.60;1.00;;;;;;7375689;19;20365;-69
2023/10/05 07:29:56;;;;;;;10.60;5.80;;;11.80;1.00;;;;;;7374414;19;20007;-68
2023/10/05 07:32:26;;;;;;;9.98;5.40;;;11.90;1.00;;;;;;7375237;19;20018;-69
2023/10/05 07:34:56;;;;;;;7.57;5.15;;;11.80;1.00;;;;;;7375302;19;20101;-69
2023/10/05 07:37:26;;;;;;;10.18;5.60;;;12.00;1.00;;;;;;7373645;19;20027;-69
2023/10/05 07:39:56;;;;;;;10.50;5.88;;;12.10;1.00;;;;;;7374823;19;20687;-69
2023/10/05 07:42:29;;;;;;;10.20;5.80;;;12.20;1.00;;;;;;7372479;19;20109;-69
2023/10/05 07:45:06;;;;;;;10.43;4.75;;;12.30;1.00;;;;;;7373261;19;20340;-69
2023/10/05 07:47:42;;;;;;;8.27;4.05;;;12.30;1.00;;;;;;7374504;19;20031;-69
2023/10/05 07:50:13;;;;;;;12.18;5.03;;;12.40;1.00;;;;;;7374644;19;20039;-69
2023/10/05 07:52:48;;;;;;;8.27;4.38;;;12.50;1.00;;;;;;7374445;19;20013;-68
2023/10/05 07:55:18;;;;;;;12.65;4.38;;;12.60;1.00;;;;;;7373672;19;20044;-69
2023/10/05 07:57:48;;;;;;;12.52;5.10;;;13.10;1.00;;;;;;7371692;19;20007;-69
2023/10/05 08:00:21;;;;;;;11.80;5.07;;;13.10;1.00;;;;;;7372248;19;20018;-69
2023/10/05 08:02:53;;;;;;;9.32;4.78;;;12.80;1.00;;;;;;7372021;19;20019;-69
2023/10/05 08:05:23;;;;;;;15.90;10.00;;;12.90;1.00;;;;;;7374260;19;20563;-69
2023/10/05 08:07:54;;;;;;;8.32;4.30;;;12.90;1.00;;;;;;7372136;19;20032;-70
2023/10/05 08:10:24;;;;;;;9.38;4.43;;;12.90;1.00;;;;;;7373457;19;20442;-69
2023/10/05 08:12:54;;;;;;;8.80;4.35;;;13.30;1.00;;;;;;7371021;19;20022;-68
2023/10/05 08:15:27;;;;;;;8.80;5.00;;;13.40;1.00;;;;;;7374122;19;20062;-69
2023/10/05 08:17:57;;;;;;;12.32;4.75;;;13.40;1.00;;;;;;7370824;19;20050;-69
2023/10/05 08:20:27;;;;;;;9.25;4.53;;;13.30;1.00;;;;;;7372366;19;20014;-68
2023/10/05 08:22:59;;;;;;;9.40;4.70;;;13.10;1.00;;;;;;7371654;19;20014;-68
2023/10/05 08:25:31;;;;;;;11.73;4.40;;;13.60;1.00;;;;;;7372083;19;20040;-69
2023/10/05 08:28:02;;;;;;;7.85;4.88;;;13.80;1.00;;;;;;7370098;19;20043;-68
2023/10/05 08:30:45;;;;;;;9.73;4.82;;;14.00;1.00;;;;;;7373204;19;20014;-69
2023/10/05 08:33:19;;;;;;;7.97;4.00;;;14.10;1.00;;;;;;7367851;19;20017;-69
2023/10/05 08:35:49;;;;;;;10.13;4.05;;;14.30;1.00;;;;;;7371288;19;20002;-69
2023/10/05 08:38:23;;;;;;;7.20;4.40;;;14.20;1.00;;;;;;7370535;19;20044;-69
2023/10/05 08:40:54;;;;;;;;;;;14.10;1.00;;;;;;7372973;19;20070;-69
2023/10/05 08:43:24;;;;;;;13.23;4.30;;;14.50;1.00;;;;;;7372468;19;19923;-69
2023/10/05 08:46:01;;;;;;;6.78;3.95;;;14.50;1.00;;;;;;7373334;19;20006;-70
2023/10/05 08:48:35;;;;;;;9.27;4.15;;;14.60;1.00;;;;;;7373167;19;20014;-70
2023/10/05 08:51:10;;;;;;;9.18;3.50;;;14.70;1.00;;;;;;7373415;19;20054;-70
2023/10/05 08:53:48;;;;;;;7.65;3.33;;;15.10;1.00;;;;;;7372928;19;20011;-70
2023/10/05 08:56:20;;;;;;;9.63;4.20;;;15.00;1.00;;;;;;7377728;19;20495;-71
2023/10/05 08:58:51;;;;;;;9.18;3.90;;;15.40;1.00;;;;;;7380034;19;20495;-71
2023/10/05 09:01:29;;;;;;;7.13;3.33;;;15.90;1.00;;;;;;7378913;19;20382;-68
2023/10/05 09:04:11;;;;;;;13.68;4.50;;;15.40;1.00;;;;;;7378812;19;20011;-69
2023/10/05 09:06:52;;;;;;;6.50;3.80;;;15.60;1.00;;;;;;7377013;19;20010;-70
2023/10/05 09:09:37;;;;;;;7.68;3.33;;;15.70;1.00;;;;;;7380365;19;20456;-70
2023/10/05 09:12:35;;;;;;;11.85;4.00;;;15.70;1.00;;;;;;7380112;19;20019;-69
2023/10/05 09:15:19;;;;;;;10.13;3.60;;;15.50;1.00;;;;;;6869711;19;2004871;-70
2023/10/05 09:18:17;;;;;;;10.52;3.55;;;15.60;1.00;;;;;;7373416;19;20154;-70
2023/10/05 09:20:52;;;;;;;8.82;3.72;;;15.70;1.00;;;;;;7377987;19;20010;-69
2023/10/05 09:23:24;;;;;;;10.23;3.83;;;15.50;1.00;;;;;;7377858;19;20479;-71
2023/10/05 09:25:55;;;;;;;9.80;3.28;;;15.40;1.00;;;;;;7379824;19;20010;-70
2023/10/05 09:28:35;;;;;;;9.23;3.45;;;15.40;1.00;;;;;;7379182;19;20614;-69
2023/10/05 09:31:07;;;;;;;7.93;3.63;;;15.40;1.00;;;;;;7377927;19;20034;-70
2023/10/05 09:33:53;;;;;;;12.10;4.10;;;15.20;1.00;;;;;;7372232;19;20030;-70
2023/10/05 09:36:25;;;;;;;9.02;3.90;;;14.80;1.00;;;;;;6866823;19;2004726;-69
2023/10/05 09:38:57;;;;;;;13.23;3.70;;;14.70;1.00;;;;;;7376710;19;20006;-69
2023/10/05 09:41:29;;;;;;;11.02;4.07;;;15.20;1.00;;;;;;7377516;19;20010;-69
2023/10/05 09:44:01;;;;;;;10.10;4.10;;;15.00;1.00;;;;;;7377625;19;20002;-69
2023/10/05 09:46:35;;;;;;;12.05;4.13;;;15.30;1.00;;;;;;7376761;19;20027;-70
2023/10/05 09:49:14;;;;;;;9.63;3.65;;;15.20;1.00;;;;;;7378736;19;20014;-69
2023/10/05 09:51:48;;;;;;;11.98;4.10;;;15.70;1.00;;;;;;7377847;19;20026;-69
2023/10/05 09:54:22;;;;;;;13.85;4.22;;;16.10;1.00;;;;;;7377429;19;20152;-70
2023/10/05 09:56:53;;;;;;;10.40;4.05;;;15.90;1.00;;;;;;7378627;19;20027;-70
2023/10/05 09:59:26;;;;;;;12.25;4.28;;;16.10;1.00;;;;;;7377413;19;20479;-70
2023/10/05 10:01:57;;;;;;;13.18;4.38;;;16.00;1.00;;;;;;7376104;19;20003;-69
2023/10/05 10:04:38;;;;;;;11.02;3.60;;;16.50;1.00;;;;;;7377299;19;20018;-69
2023/10/05 10:07:15;;;;;;;11.27;4.07;;;16.20;1.00;;;;;;7374317;19;20039;-70
2023/10/05 10:09:53;;;;;;;17.83;4.13;;;16.40;1.00;;;;;;7376004;19;20014;-70
2023/10/05 10:12:29;;;;;;;8.20;4.18;;;16.00;1.00;;;;;;7377263;19;20051;-70
2023/10/05 10:14:59;;;;;;;11.23;3.90;;;16.30;1.00;;;;;;7377662;19;20675;-70
2023/10/05 10:17:33;;;;;;;12.10;3.70;;;16.50;1.00;;;;;;7375826;19;20018;-70
2023/10/05 10:20:34;;;;;;;13.82;5.18;;;16.50;1.00;;;;;;7376152;19;20102;-70
2023/10/05 10:23:18;;;;;;;10.00;3.90;;;16.70;1.00;;;;;;6865826;19;2004775;-70
2023/10/05 10:25:50;;;;;;;8.88;3.70;;;17.00;1.00;;;;;;7374408;19;20074;-69
2023/10/05 10:28:37;;;;;;;9.35;3.65;;;17.00;1.00;;;;;;7375493;19;20010;-70
2023/10/05 10:31:17;;;;;;;8.60;3.78;;;17.30;1.00;;;;;;7377102;19;20022;-70
2023/10/05 10:33:52;;;;;;;10.75;3.40;;;17.30;1.00;;;;;;7372679;19;20343;-69
2023/10/05 10:36:56;;;;;;;12.35;3.90;;;16.50;1.00;;;;;;7374312;19;20506;-69
2023/10/05 10:39:27;;;;;;;10.02;4.25;;;16.40;1.00;;;;;;6867061;19;2005246;-70
2023/10/05 10:42:04;;;;;;;12.15;4.28;;;17.30;1.00;;;;;;7371599;19;20010;-70
2023/10/05 10:44:56;;;;;;;9.07;3.80;;;16.90;1.00;;;;;;7375572;19;20035;-69
2023/10/05 10:47:27;;;;;;;12.18;3.28;;;17.00;1.00;;;;;;6864189;19;2004875;-70
2023/10/05 10:50:11;;;;;;;8.18;3.08;;;16.70;1.00;;;;;;7375878;19;20021;-70
2023/10/05 10:52:45;;;;;;;8.55;3.00;;;16.90;1.00;;;;;;7373850;19;20486;-72
2023/10/05 10:55:20;;;;;;;9.30;3.35;;;17.10;1.00;;;;;;7375499;19;20010;-70
2023/10/05 10:57:53;;;;;;;9.23;3.35;;;16.60;1.00;;;;;;7374134;19;20800;-69
2023/10/05 11:03:12;;;;;;;12.90;2.90;;;16.60;1.00;;;;;;7374682;19;20032;-70
2023/10/05 11:05:40;;;;;;;8.10;3.55;;;16.50;1.00;;;;;;7372154;19;20682;-69
2023/10/05 11:08:15;;;;;;;13.70;3.70;;;16.90;1.00;;;;;;7375988;19;20509;-70
2023/10/05 11:10:45;;;;;;;9.90;3.67;;;16.60;1.00;;;;;;7373675;19;20039;-69
2023/10/05 11:13:20;;;;;;;10.18;3.80;;;16.90;1.00;;;;;;7373912;19;20035;-70
2023/10/05 11:15:57;;;;;;;15.30;3.97;;;17.00;1.00;;;;;;7375355;19;20031;-70
2023/10/05 11:18:30;;;;;;;11.98;3.70;;;17.10;1.00;;;;;;7374715;19;20018;-71
2023/10/05 11:21:13;;;;;;;7.85;3.38;;;17.10;1.00;;;;;;7375683;19;20081;-70
2023/10/05 11:23:56;;;;;;;8.57;3.38;;;16.60;1.00;;;;;;7372603;19;20072;-70
2023/10/05 11:26:33;;;;;;;8.93;3.40;;;17.20;1.00;;;;;;7373482;19;20452;-70
2023/10/05 11:29:28;;;;;;;10.15;4.00;;;17.20;1.00;;;;;;6864088;19;2005238;-69
2023/10/05 11:32:03;;;;;;;8.23;3.65;;;17.50;1.00;;;;;;7374967;19;20022;-70
2023/10/05 11:34:55;;;;;;;9.35;3.78;;;17.10;1.00;;;;;;6863891;19;2005058;-69
2023/10/05 11:37:58;;;;;;;8.68;3.72;;;17.10;1.00;;;;;;7370463;19;20402;-69
2023/10/05 11:40:48;;;;;;;8.65;3.08;;;17.30;1.00;;;;;;7375867;19;20021;-70
2023/10/05 11:43:21;;;;;;;8.07;2.90;;;17.00;1.00;;;;;;7373187;19;20068;-70
2023/10/05 11:46:16;;;;;;;8.63;3.47;;;16.90;1.00;;;;;;7373628;19;20431;-71
2023/10/05 11:48:51;;;;;;;10.18;3.28;;;16.90;1.00;;;;;;7374792;19;20010;-69
2023/10/05 11:51:26;;;;;;;;;;;16.80;1.00;;;;;;7374731;19;20010;-69
2023/10/05 11:53:58;;;;;;;11.30;3.70;;;16.70;1.00;;;;;;7373741;19;19918;-69
2023/10/05 11:56:33;;;;;;;12.50;3.50;;;16.80;1.00;;;;;;7372556;19;20024;-70
2023/10/05 11:59:05;;;;;;;8.98;3.33;;;16.80;1.00;;;;;;7374909;19;20011;-69
2023/10/05 12:01:40;;;;;;;9.85;3.72;;;17.20;1.00;;;;;;7374941;19;20028;-69
2023/10/05 12:04:10;;;;;;;8.55;3.92;;;17.00;1.00;;;;;;7375661;19;20006;-69
2023/10/05 12:06:41;;;;;;;13.82;4.47;;;17.10;1.00;;;;;;7374357;19;20006;-70
2023/10/05 12:09:27;;;;;;;9.18;3.70;;;17.20;1.00;;;;;;7371487;19;20474;-70
2023/10/05 12:12:02;;;;;;;9.18;3.22;;;17.20;1.00;;;;;;7271033;19;2004153;-69
2023/10/05 12:14:33;;;;;;;7.35;2.80;;;16.70;1.00;;;;;;7374125;19;20033;-70
2023/10/05 12:17:05;;;;;;;6.97;3.20;;;17.00;1.00;;;;;;7372780;19;20006;-68
2023/10/05 12:19:36;;;;;;;11.48;4.10;;;16.30;1.00;;;;;;7374465;19;20481;-69
2023/10/05 12:22:08;;;;;;;7.30;3.30;;;16.70;1.00;;;;;;7372200;19;20040;-70
2023/10/05 12:24:38;;;;;;;11.07;3.15;;;16.50;1.00;;;;;;7376245;19;20016;-69
2023/10/05 12:27:22;;;;;;;9.18;2.97;;;16.70;1.00;;;;;;7374308;19;20017;-69
2023/10/05 12:29:52;;;;;;;9.30;4.00;;;16.60;1.00;;;;;;6861068;19;2004804;-70
2023/10/05 12:32:24;;;;;;;10.68;3.72;;;16.80;1.00;;;;;;7372858;19;20477;-68
2023/10/05 12:34:56;;;;;;;10.75;3.42;;;17.00;1.00;;;;;;7373568;19;20035;-69
2023/10/05 12:37:26;;;;;;;15.95;3.35;;;16.50;1.00;;;;;;7372532;19;20014;-69
2023/10/05 12:39:56;;;;;;;17.42;3.13;;;16.40;1.00;;;;;;7371706;19;20014;-70
2023/10/05 12:42:29;;;;;;;9.05;3.30;;;16.60;1.00;;;;;;7372632;19;20103;-70
2023/10/05 12:45:04;;;;;;;10.13;3.08;;;16.70;1.00;;;;;;7374327;19;20114;-69
2023/10/05 12:47:36;;;;;;;8.82;2.92;;;16.40;1.00;;;;;;7372675;19;20006;-68
2023/10/05 12:50:07;;;;;;;9.55;3.42;;;16.50;1.00;;;;;;7369521;19;20014;-69
2023/10/05 12:52:37;;;;;;;10.23;3.60;;;16.20;1.00;;;;;;7374288;19;20018;-69
2023/10/05 12:55:08;;;;;;;8.50;3.65;;;16.10;1.00;;;;;;7374533;19;20010;-70
2023/10/05 12:57:44;;;;;;;8.05;3.60;;;16.20;1.00;;;;;;7373709;19;20027;-70
2023/10/05 13:00:22;;;;;;;10.50;3.72;;;16.30;1.00;;;;;;7366844;19;20036;-69
2023/10/05 13:02:53;;;;;;;12.32;3.50;;;16.30;1.00;;;;;;7371987;19;20023;-70
2023/10/05 13:05:28;;;;;;;10.30;3.92;;;16.40;1.00;;;;;;7372275;19;20023;-70
2023/10/05 13:08:03;;;;;;;11.55;4.10;;;16.40;1.00;;;;;;7370560;19;20006;-71
2023/10/05 13:10:35;;;;;;;13.57;3.58;;;16.40;1.00;;;;;;7372207;19;20014;-70
2023/10/05 13:13:17;;;;;;;9.52;3.50;;;16.50;1.00;;;;;;7372406;19;20085;-70
2023/10/05 13:15:49;;;;;;;11.15;3.35;;;16.30;1.00;;;;;;7371256;19;20018;-70
2023/10/05 13:18:25;;;;;;;9.80;3.88;;;16.30;1.00;;;;;;7370326;19;20377;-69
2023/10/05 13:20:57;;;;;;;8.65;3.88;;;16.10;1.00;;;;;;7372071;19;20183;-70
2023/10/05 13:23:30;;;;;;;11.55;3.47;;;16.00;1.00;;;;;;7371942;19;20014;-70
2023/10/05 13:26:00;;;;;;;12.85;4.13;;;16.10;1.00;;;;;;7371457;19;20011;-70
2023/10/05 13:28:32;;;;;;;10.10;3.88;;;16.00;1.00;;;;;;7371791;19;20043;-70
2023/10/05 13:31:06;;;;;;;8.45;3.30;;;16.20;1.00;;;;;;7372615;19;20025;-70
2023/10/05 13:33:49;;;;;;;7.32;2.75;;;16.20;1.00;;;;;;7364966;19;20014;-69